sensor_id;sensor_type;location;lat;lon;timestamp;pressure;altitude;pressure_sealevel;temperature
60615;BMP280;46444;45.590;5.284;2023-04-08T00:00:18;99028.69;;;8.22
60615;BMP280;46444;45.590;5.284;2023-04-08T00:02:44;99029.22;;;8.37
60615;BMP280;46444;45.590;5.284;2023-04-08T00:05:10;99038.09;;;8.18
60615;BMP280;46444;45.590;5.284;2023-04-08T00:07:35;99034.19;;;8.27
60615;BMP280;46444;45.590;5.284;2023-04-08T00:10:01;99027.72;;;8.10
60615;BMP280;46444;45.590;5.284;2023-04-08T00:12:27;99023.22;;;8.11
60615;BMP280;46444;45.590;5.284;2023-04-08T00:14:52;99028.50;;;8.17
60615;BMP280;46444;45.590;5.284;2023-04-08T00:17:18;99027.66;;;8.23
60615;BMP280;46444;45.590;5.284;2023-04-08T00:19:43;99034.38;;;8.32
60615;BMP280;46444;45.590;5.284;2023-04-08T00:22:09;99030.69;;;8.27
60615;BMP280;46444;45.590;5.284;2023-04-08T00:24:35;99028.28;;;8.18
60615;BMP280;46444;45.590;5.284;2023-04-08T00:27:01;99023.38;;;8.22
60615;BMP280;46444;45.590;5.284;2023-04-08T00:29:27;99022.13;;;8.18
60615;BMP280;46444;45.590;5.284;2023-04-08T00:31:52;99026.75;;;8.05
60615;BMP280;46444;45.590;5.284;2023-04-08T00:34:18;99018.53;;;8.06
60615;BMP280;46444;45.590;5.284;2023-04-08T00:36:44;99011.84;;;7.97
60615;BMP280;46444;45.590;5.284;2023-04-08T00:39:12;99008.22;;;7.85
60615;BMP280;46444;45.590;5.284;2023-04-08T00:41:37;99008.22;;;7.92
60615;BMP280;46444;45.590;5.284;2023-04-08T00:44:03;99011.50;;;7.87
60615;BMP280;46444;45.590;5.284;2023-04-08T00:46:30;99008.31;;;7.72
60615;BMP280;46444;45.590;5.284;2023-04-08T00:48:56;99018.28;;;7.83
60615;BMP280;46444;45.590;5.284;2023-04-08T00:51:21;99022.09;;;7.50
60615;BMP280;46444;45.590;5.284;2023-04-08T00:53:47;99027.81;;;7.60
60615;BMP280;46444;45.590;5.284;2023-04-08T00:56:12;99023.03;;;7.75
60615;BMP280;46444;45.590;5.284;2023-04-08T00:58:38;99023.84;;;7.75
60615;BMP280;46444;45.590;5.284;2023-04-08T01:01:13;99016.25;;;7.79
60615;BMP280;46444;45.590;5.284;2023-04-08T01:04:06;99031.88;;;7.62
60615;BMP280;46444;45.590;5.284;2023-04-08T01:09:08;99023.31;;;7.60
60615;BMP280;46444;45.590;5.284;2023-04-08T01:11:34;99021.44;;;7.61
60615;BMP280;46444;45.590;5.284;2023-04-08T01:14:04;99022.66;;;7.71
60615;BMP280;46444;45.590;5.284;2023-04-08T01:16:32;99022.03;;;7.69
60615;BMP280;46444;45.590;5.284;2023-04-08T01:18:59;99022.69;;;7.58
60615;BMP280;46444;45.590;5.284;2023-04-08T01:21:25;99024.78;;;7.50
60615;BMP280;46444;45.590;5.284;2023-04-08T01:24:16;99025.59;;;7.57
60615;BMP280;46444;45.590;5.284;2023-04-08T01:26:42;99024.75;;;7.56
60615;BMP280;46444;45.590;5.284;2023-04-08T01:29:09;99036.63;;;7.54
60615;BMP280;46444;45.590;5.284;2023-04-08T01:31:37;99019.88;;;7.53
60615;BMP280;46444;45.590;5.284;2023-04-08T01:34:04;99017.22;;;7.53
60615;BMP280;46444;45.590;5.284;2023-04-08T01:36:30;99026.25;;;7.39
60615;BMP280;46444;45.590;5.284;2023-04-08T01:38:59;99030.97;;;7.31
60615;BMP280;46444;45.590;5.284;2023-04-08T01:41:26;99025.31;;;7.21
60615;BMP280;46444;45.590;5.284;2023-04-08T01:43:53;99017.28;;;7.34
60615;BMP280;46444;45.590;5.284;2023-04-08T01:46:19;99014.63;;;7.34
60615;BMP280;46444;45.590;5.284;2023-04-08T01:48:46;99017.94;;;7.29
60615;BMP280;46444;45.590;5.284;2023-04-08T01:51:13;99013.25;;;7.12
60615;BMP280;46444;45.590;5.284;2023-04-08T01:53:39;99014.28;;;7.11
60615;BMP280;46444;45.590;5.284;2023-04-08T01:56:08;99015.13;;;7.11
60615;BMP280;46444;45.590;5.284;2023-04-08T01:58:45;99022.06;;;6.99
60615;BMP280;46444;45.590;5.284;2023-04-08T02:01:13;99018.41;;;7.00
60615;BMP280;46444;45.590;5.284;2023-04-08T02:03:41;99021.28;;;6.92
60615;BMP280;46444;45.590;5.284;2023-04-08T02:06:07;99021.69;;;7.02
60615;BMP280;46444;45.590;5.284;2023-04-08T02:08:33;99015.75;;;7.00
60615;BMP280;46444;45.590;5.284;2023-04-08T02:11:00;99028.22;;;7.00
60615;BMP280;46444;45.590;5.284;2023-04-08T02:13:27;99029.44;;;7.04
60615;BMP280;46444;45.590;5.284;2023-04-08T02:15:56;99020.84;;;7.08
60615;BMP280;46444;45.590;5.284;2023-04-08T02:18:26;99034.75;;;7.04
60615;BMP280;46444;45.590;5.284;2023-04-08T02:20:57;99038.84;;;6.93
60615;BMP280;46444;45.590;5.284;2023-04-08T02:23:26;99029.84;;;7.01
60615;BMP280;46444;45.590;5.284;2023-04-08T02:25:54;99026.63;;;6.86
60615;BMP280;46444;45.590;5.284;2023-04-08T02:28:21;99034.75;;;6.97
60615;BMP280;46444;45.590;5.284;2023-04-08T02:30:50;99036.81;;;6.89
60615;BMP280;46444;45.590;5.284;2023-04-08T02:33:21;99031.31;;;6.71
60615;BMP280;46444;45.590;5.284;2023-04-08T02:35:48;99025.63;;;6.67
60615;BMP280;46444;45.590;5.284;2023-04-08T02:38:14;99030.31;;;6.72
60615;BMP280;46444;45.590;5.284;2023-04-08T02:40:40;99029.69;;;6.70
60615;BMP280;46444;45.590;5.284;2023-04-08T02:43:06;99035.81;;;6.77
60615;BMP280;46444;45.590;5.284;2023-04-08T02:45:41;99035.66;;;6.52
60615;BMP280;46444;45.590;5.284;2023-04-08T02:48:07;99031.94;;;6.66
60615;BMP280;46444;45.590;5.284;2023-04-08T02:50:32;99029.91;;;6.75
60615;BMP280;46444;45.590;5.284;2023-04-08T02:52:58;99034.00;;;6.77
60615;BMP280;46444;45.590;5.284;2023-04-08T02:55:23;99034.59;;;6.79
60615;BMP280;46444;45.590;5.284;2023-04-08T02:57:49;99026.63;;;6.86
60615;BMP280;46444;45.590;5.284;2023-04-08T03:00:15;99023.72;;;6.87
60615;BMP280;46444;45.590;5.284;2023-04-08T03:02:41;99032.34;;;6.89
60615;BMP280;46444;45.590;5.284;2023-04-08T03:05:07;99035.22;;;6.68
60615;BMP280;46444;45.590;5.284;2023-04-08T03:07:33;99035.63;;;6.65
60615;BMP280;46444;45.590;5.284;2023-04-08T03:10:00;99038.47;;;6.57
60615;BMP280;46444;45.590;5.284;2023-04-08T03:12:26;99032.78;;;6.47
60615;BMP280;46444;45.590;5.284;2023-04-08T03:14:52;99033.59;;;6.54
60615;BMP280;46444;45.590;5.284;2023-04-08T03:17:18;99030.72;;;6.49
60615;BMP280;46444;45.590;5.284;2023-04-08T03:19:44;99033.38;;;6.49
60615;BMP280;46444;45.590;5.284;2023-04-08T03:22:09;99024.19;;;6.52
60615;BMP280;46444;45.590;5.284;2023-04-08T03:24:35;99033.19;;;6.44
60615;BMP280;46444;45.590;5.284;2023-04-08T03:27:01;99034.63;;;6.40
60615;BMP280;46444;45.590;5.284;2023-04-08T03:29:26;99043.78;;;6.31
60615;BMP280;46444;45.590;5.284;2023-04-08T03:31:52;99034.00;;;6.38
60615;BMP280;46444;45.590;5.284;2023-04-08T03:34:17;99029.72;;;6.44
60615;BMP280;46444;45.590;5.284;2023-04-08T03:36:43;99036.06;;;6.43
60615;BMP280;46444;45.590;5.284;2023-04-08T03:39:08;99027.47;;;6.34
60615;BMP280;46444;45.590;5.284;2023-04-08T03:41:34;99029.91;;;6.36
60615;BMP280;46444;45.590;5.284;2023-04-08T03:44:00;99033.59;;;6.41
60615;BMP280;46444;45.590;5.284;2023-04-08T03:46:25;99031.53;;;6.37
60615;BMP280;46444;45.590;5.284;2023-04-08T03:48:51;99044.41;;;6.14
60615;BMP280;46444;45.590;5.284;2023-04-08T03:51:16;99041.94;;;6.19
60615;BMP280;46444;45.590;5.284;2023-04-08T03:53:41;99038.91;;;6.28
60615;BMP280;46444;45.590;5.284;2023-04-08T03:56:07;99048.25;;;6.18
60615;BMP280;46444;45.590;5.284;2023-04-08T03:58:32;99039.31;;;6.25
60615;BMP280;46444;45.590;5.284;2023-04-08T04:00:58;99052.38;;;6.27
60615;BMP280;46444;45.590;5.284;2023-04-08T04:03:23;99049.91;;;6.25
60615;BMP280;46444;45.590;5.284;2023-04-08T04:05:49;99056.47;;;6.42
60615;BMP280;46444;45.590;5.284;2023-04-08T04:08:14;99059.72;;;6.44
60615;BMP280;46444;45.590;5.284;2023-04-08T04:10:40;99045.44;;;6.45
60615;BMP280;46444;45.590;5.284;2023-04-08T04:13:05;99049.75;;;6.46
60615;BMP280;46444;45.590;5.284;2023-04-08T04:15:30;99041.56;;;6.54
60615;BMP280;46444;45.590;5.284;2023-04-08T04:17:56;99060.94;;;6.42
60615;BMP280;46444;45.590;5.284;2023-04-08T04:20:21;99063.00;;;6.46
60615;BMP280;46444;45.590;5.284;2023-04-08T04:22:47;99056.66;;;6.60
60615;BMP280;46444;45.590;5.284;2023-04-08T04:25:12;99061.34;;;6.65
60615;BMP280;46444;45.590;5.284;2023-04-08T04:27:38;99053.78;;;6.81
60615;BMP280;46444;45.590;5.284;2023-04-08T04:30:04;99053.59;;;6.83
60615;BMP280;46444;45.590;5.284;2023-04-08T04:32:30;99057.88;;;6.90
60615;BMP280;46444;45.590;5.284;2023-04-08T04:34:55;99069.09;;;6.92
60615;BMP280;46444;45.590;5.284;2023-04-08T04:37:20;99059.28;;;6.99
60615;BMP280;46444;45.590;5.284;2023-04-08T04:39:46;99066.22;;;6.87
60615;BMP280;46444;45.590;5.284;2023-04-08T04:42:11;99070.34;;;6.83
60615;BMP280;46444;45.590;5.284;2023-04-08T04:44:38;99063.38;;;6.95
60615;BMP280;46444;45.590;5.284;2023-04-08T04:47:03;99069.28;;;6.97
60615;BMP280;46444;45.590;5.284;2023-04-08T04:49:29;99062.53;;;7.08
60615;BMP280;46444;45.590;5.284;2023-04-08T04:51:55;99068.66;;;7.02
60615;BMP280;46444;45.590;5.284;2023-04-08T04:54:20;99063.16;;;7.03
60615;BMP280;46444;45.590;5.284;2023-04-08T04:56:50;99066.00;;;7.08
60615;BMP280;46444;45.590;5.284;2023-04-08T04:59:19;99065.38;;;7.19
60615;BMP280;46444;45.590;5.284;2023-04-08T05:01:45;99071.09;;;7.29
60615;BMP280;46444;45.590;5.284;2023-04-08T05:04:12;99064.31;;;7.33
60615;BMP280;46444;45.590;5.284;2023-04-08T05:06:37;99074.53;;;7.36
60615;BMP280;46444;45.590;5.284;2023-04-08T05:09:04;99080.00;;;7.48
60615;BMP280;46444;45.590;5.284;2023-04-08T05:11:29;99075.72;;;7.40
60615;BMP280;46444;45.590;5.284;2023-04-08T05:13:56;99079.66;;;7.31
60615;BMP280;46444;45.590;5.284;2023-04-08T05:16:21;99076.16;;;7.37
60615;BMP280;46444;45.590;5.284;2023-04-08T05:18:46;99081.88;;;7.47
60615;BMP280;46444;45.590;5.284;2023-04-08T05:21:12;99082.66;;;7.48
60615;BMP280;46444;45.590;5.284;2023-04-08T05:23:37;99083.69;;;7.53
60615;BMP280;46444;45.590;5.284;2023-04-08T05:26:06;99084.88;;;7.57
60615;BMP280;46444;45.590;5.284;2023-04-08T05:28:32;99086.13;;;7.55
60615;BMP280;46444;45.590;5.284;2023-04-08T05:30:57;99088.38;;;7.51
60615;BMP280;46444;45.590;5.284;2023-04-08T05:33:22;99086.50;;;7.58
60615;BMP280;46444;45.590;5.284;2023-04-08T05:35:48;99093.84;;;7.69
60615;BMP280;46444;45.590;5.284;2023-04-08T05:38:13;99091.44;;;7.55
60615;BMP280;46444;45.590;5.284;2023-04-08T05:40:39;99095.72;;;7.62
60615;BMP280;46444;45.590;5.284;2023-04-08T05:43:04;99101.28;;;7.54
60615;BMP280;46444;45.590;5.284;2023-04-08T05:45:29;99099.16;;;7.76
60615;BMP280;46444;45.590;5.284;2023-04-08T05:47:55;99095.06;;;7.67
60615;BMP280;46444;45.590;5.284;2023-04-08T05:50:20;99093.00;;;7.75
60615;BMP280;46444;45.590;5.284;2023-04-08T05:52:45;99104.00;;;7.85
60615;BMP280;46444;45.590;5.284;2023-04-08T05:55:12;99100.31;;;7.86
60615;BMP280;46444;45.590;5.284;2023-04-08T05:57:38;99115.63;;;7.97
60615;BMP280;46444;45.590;5.284;2023-04-08T06:00:07;99105.63;;;7.93
60615;BMP280;46444;45.590;5.284;2023-04-08T06:02:34;99114.56;;;8.05
60615;BMP280;46444;45.590;5.284;2023-04-08T06:05:00;99112.91;;;8.10
60615;BMP280;46444;45.590;5.284;2023-04-08T06:07:26;99103.94;;;8.05
60615;BMP280;46444;45.590;5.284;2023-04-08T06:09:51;99101.97;;;8.18
60615;BMP280;46444;45.590;5.284;2023-04-08T06:12:17;99118.41;;;7.71
60615;BMP280;46444;45.590;5.284;2023-04-08T06:14:42;99115.50;;;7.79
60615;BMP280;46444;45.590;5.284;2023-04-08T06:17:08;99122.44;;;7.80
60615;BMP280;46444;45.590;5.284;2023-04-08T06:19:33;99126.00;;;7.68
60615;BMP280;46444;45.590;5.284;2023-04-08T06:21:59;99124.72;;;7.77
60615;BMP280;46444;45.590;5.284;2023-04-08T06:24:25;99135.19;;;7.65
60615;BMP280;46444;45.590;5.284;2023-04-08T06:26:51;99125.22;;;7.98
60615;BMP280;46444;45.590;5.284;2023-04-08T06:29:18;99133.03;;;7.93
60615;BMP280;46444;45.590;5.284;2023-04-08T06:31:43;99130.75;;;8.03
60615;BMP280;46444;45.590;5.284;2023-04-08T06:34:10;99126.28;;;7.97
60615;BMP280;46444;45.590;5.284;2023-04-08T06:36:35;99134.72;;;7.81
60615;BMP280;46444;45.590;5.284;2023-04-08T06:39:00;99135.94;;;7.85
60615;BMP280;46444;45.590;5.284;2023-04-08T06:41:26;99132.69;;;7.83
60615;BMP280;46444;45.590;5.284;2023-04-08T06:43:51;99133.88;;;7.87
60615;BMP280;46444;45.590;5.284;2023-04-08T06:46:16;99142.88;;;7.86
60615;BMP280;46444;45.590;5.284;2023-04-08T06:48:42;99148.06;;;7.68
60615;BMP280;46444;45.590;5.284;2023-04-08T06:51:07;99148.66;;;7.70
60615;BMP280;46444;45.590;5.284;2023-04-08T06:53:32;99145.75;;;7.91
60615;BMP280;46444;45.590;5.284;2023-04-08T06:55:58;99155.59;;;7.78
60615;BMP280;46444;45.590;5.284;2023-04-08T06:58:24;99163.13;;;7.87
60615;BMP280;46444;45.590;5.284;2023-04-08T07:00:50;99160.41;;;8.00
60615;BMP280;46444;45.590;5.284;2023-04-08T07:03:15;99168.66;;;7.92
60615;BMP280;46444;45.590;5.284;2023-04-08T07:05:40;99165.72;;;8.13
60615;BMP280;46444;45.590;5.284;2023-04-08T07:08:06;99172.69;;;8.07
60615;BMP280;46444;45.590;5.284;2023-04-08T07:10:33;99173.66;;;7.63
60615;BMP280;46444;45.590;5.284;2023-04-08T07:12:59;99183.88;;;7.72
60615;BMP280;46444;45.590;5.284;2023-04-08T07:15:24;99177.38;;;7.55
60615;BMP280;46444;45.590;5.284;2023-04-08T07:17:50;99181.47;;;7.32
60615;BMP280;46444;45.590;5.284;2023-04-08T07:20:15;99191.28;;;7.44
60615;BMP280;46444;45.590;5.284;2023-04-08T07:22:41;99207.47;;;6.91
60615;BMP280;46444;45.590;5.284;2023-04-08T07:25:06;99198.66;;;7.23
60615;BMP280;46444;45.590;5.284;2023-04-08T07:27:33;99193.13;;;7.37
60615;BMP280;46444;45.590;5.284;2023-04-08T07:29:58;99203.38;;;7.27
60615;BMP280;46444;45.590;5.284;2023-04-08T07:32:23;99204.38;;;7.20
60615;BMP280;46444;45.590;5.284;2023-04-08T07:34:49;99200.31;;;7.17
60615;BMP280;46444;45.590;5.284;2023-04-08T07:37:14;99199.25;;;7.44
60615;BMP280;46444;45.590;5.284;2023-04-08T07:39:40;99195.81;;;7.24
60615;BMP280;46444;45.590;5.284;2023-04-08T07:42:05;99203.94;;;7.55
60615;BMP280;46444;45.590;5.284;2023-04-08T07:44:30;99205.00;;;7.54
60615;BMP280;46444;45.590;5.284;2023-04-08T07:46:56;99201.94;;;7.31
60615;BMP280;46444;45.590;5.284;2023-04-08T07:49:21;99217.50;;;7.15
60615;BMP280;46444;45.590;5.284;2023-04-08T07:51:46;99215.03;;;7.33
60615;BMP280;46444;45.590;5.284;2023-04-08T07:54:12;99217.06;;;7.37
60615;BMP280;46444;45.590;5.284;2023-04-08T07:56:41;99219.09;;;7.22
60615;BMP280;46444;45.590;5.284;2023-04-08T07:59:08;99219.09;;;7.55
60615;BMP280;46444;45.590;5.284;2023-04-08T08:01:34;99221.91;;;7.73
60615;BMP280;46444;45.590;5.284;2023-04-08T08:04:00;99213.34;;;7.51
60615;BMP280;46444;45.590;5.284;2023-04-08T08:06:26;99218.63;;;7.84
60615;BMP280;46444;45.590;5.284;2023-04-08T08:08:54;99220.69;;;7.75
60615;BMP280;46444;45.590;5.284;2023-04-08T08:11:19;99222.31;;;7.76
60615;BMP280;46444;45.590;5.284;2023-04-08T08:13:46;99221.44;;;8.02
60615;BMP280;46444;45.590;5.284;2023-04-08T08:16:12;99228.19;;;8.11
60615;BMP280;46444;45.590;5.284;2023-04-08T08:18:37;99233.91;;;8.07
60615;BMP280;46444;45.590;5.284;2023-04-08T08:21:04;99230.00;;;8.17
60615;BMP280;46444;45.590;5.284;2023-04-08T08:23:30;99221.63;;;8.00
60615;BMP280;46444;45.590;5.284;2023-04-08T08:26:06;99223.88;;;8.03
60615;BMP280;46444;45.590;5.284;2023-04-08T08:28:34;99236.13;;;8.24
60615;BMP280;46444;45.590;5.284;2023-04-08T08:30:59;99243.06;;;8.18
60615;BMP280;46444;45.590;5.284;2023-04-08T08:33:25;99237.88;;;7.79
60615;BMP280;46444;45.590;5.284;2023-04-08T08:35:53;99248.44;;;8.05
60615;BMP280;46444;45.590;5.284;2023-04-08T08:38:20;99248.59;;;8.30
60615;BMP280;46444;45.590;5.284;2023-04-08T08:40:45;99242.91;;;8.00
60615;BMP280;46444;45.590;5.284;2023-04-08T08:43:10;99242.69;;;8.28
60615;BMP280;46444;45.590;5.284;2023-04-08T08:45:42;99256.78;;;8.28
60615;BMP280;46444;45.590;5.284;2023-04-08T08:48:07;99249.91;;;8.58
60615;BMP280;46444;45.590;5.284;2023-04-08T08:50:34;99257.03;;;8.70
60615;BMP280;46444;45.590;5.284;2023-04-08T08:53:00;99262.16;;;8.72
60615;BMP280;46444;45.590;5.284;2023-04-08T08:55:25;99261.78;;;8.62
60615;BMP280;46444;45.590;5.284;2023-04-08T08:57:51;99258.38;;;8.86
60615;BMP280;46444;45.590;5.284;2023-04-08T09:00:16;99261.28;;;8.78
60615;BMP280;46444;45.590;5.284;2023-04-08T09:02:43;99269.28;;;8.78
60615;BMP280;46444;45.590;5.284;2023-04-08T09:05:08;99264.38;;;9.06
60615;BMP280;46444;45.590;5.284;2023-04-08T09:07:37;99280.91;;;8.90
60615;BMP280;46444;45.590;5.284;2023-04-08T09:10:06;99275.00;;;8.81
60615;BMP280;46444;45.590;5.284;2023-04-08T09:12:32;99269.50;;;9.07
60615;BMP280;46444;45.590;5.284;2023-04-08T09:15:05;99275.03;;;9.06
60615;BMP280;46444;45.590;5.284;2023-04-08T09:17:35;99270.47;;;9.13
60615;BMP280;46444;45.590;5.284;2023-04-08T09:20:11;99270.56;;;9.00
60615;BMP280;46444;45.590;5.284;2023-04-08T09:25:25;99266.31;;;9.23
60615;BMP280;46444;45.590;5.284;2023-04-08T09:27:50;99269.41;;;9.20
60615;BMP280;46444;45.590;5.284;2023-04-08T09:30:17;99261.69;;;9.37
60615;BMP280;46444;45.590;5.284;2023-04-08T09:33:07;99272.34;;;9.37
60615;BMP280;46444;45.590;5.284;2023-04-08T09:35:31;99255.47;;;9.43
60615;BMP280;46444;45.590;5.284;2023-04-08T09:37:56;99257.56;;;9.41
60615;BMP280;46444;45.590;5.284;2023-04-08T09:40:23;99255.09;;;9.39
60615;BMP280;46444;45.590;5.284;2023-04-08T09:42:51;99261.69;;;9.37
60615;BMP280;46444;45.590;5.284;2023-04-08T09:45:18;99251.34;;;9.47
60615;BMP280;46444;45.590;5.284;2023-04-08T09:48:09;99251.69;;;9.57
60615;BMP280;46444;45.590;5.284;2023-04-08T09:50:42;99245.03;;;9.66
60615;BMP280;46444;45.590;5.284;2023-04-08T09:53:34;99244.13;;;9.72
60615;BMP280;46444;45.590;5.284;2023-04-08T09:56:01;99251.94;;;9.73
60615;BMP280;46444;45.590;5.284;2023-04-08T09:58:37;99251.44;;;9.83
60615;BMP280;46444;45.590;5.284;2023-04-08T10:01:04;99255.19;;;9.75
60615;BMP280;46444;45.590;5.284;2023-04-08T10:03:47;99241.25;;;9.73
60615;BMP280;46444;45.590;5.284;2023-04-08T10:06:14;99239.56;;;9.79
60615;BMP280;46444;45.590;5.284;2023-04-08T10:08:40;99243.22;;;9.84
60615;BMP280;46444;45.590;5.284;2023-04-08T10:11:06;99243.53;;;9.94
60615;BMP280;46444;45.590;5.284;2023-04-08T10:13:32;99238.31;;;9.99
60615;BMP280;46444;45.590;5.284;2023-04-08T10:16:18;99240.94;;;10.06
60615;BMP280;46444;45.590;5.284;2023-04-08T10:18:43;99232.38;;;9.97
60615;BMP280;46444;45.590;5.284;2023-04-08T10:21:32;99245.34;;;10.18
60615;BMP280;46444;45.590;5.284;2023-04-08T10:23:58;99246.75;;;10.21
60615;BMP280;46444;45.590;5.284;2023-04-08T10:26:35;99240.41;;;9.97
60615;BMP280;46444;45.590;5.284;2023-04-08T10:31:41;99234.50;;;10.31
60615;BMP280;46444;45.590;5.284;2023-04-08T10:34:32;99236.84;;;10.39
60615;BMP280;46444;45.590;5.284;2023-04-08T10:36:58;99240.03;;;10.48
60615;BMP280;46444;45.590;5.284;2023-04-08T10:39:25;99243.28;;;10.50
60615;BMP280;46444;45.590;5.284;2023-04-08T10:41:51;99238.38;;;10.35
60615;BMP280;46444;45.590;5.284;2023-04-08T10:44:17;99226.09;;;10.46
60615;BMP280;46444;45.590;5.284;2023-04-08T10:46:46;99238.34;;;10.53
60615;BMP280;46444;45.590;5.284;2023-04-08T10:49:12;99233.63;;;10.67
60615;BMP280;46444;45.590;5.284;2023-04-08T10:51:38;99224.66;;;10.61
60615;BMP280;46444;45.590;5.284;2023-04-08T10:54:05;99229.88;;;10.68
60615;BMP280;46444;45.590;5.284;2023-04-08T10:56:31;99219.94;;;10.75
60615;BMP280;46444;45.590;5.284;2023-04-08T10:58:57;99218.56;;;10.84
60615;BMP280;46444;45.590;5.284;2023-04-08T11:01:24;99226.03;;;10.82
60615;BMP280;46444;45.590;5.284;2023-04-08T11:03:49;99224.06;;;10.89
60615;BMP280;46444;45.590;5.284;2023-04-08T11:06:16;99227.91;;;10.93
60615;BMP280;46444;45.590;5.284;2023-04-08T11:08:44;99222.38;;;11.06
60615;BMP280;46444;45.590;5.284;2023-04-08T11:11:10;99220.03;;;10.98
60615;BMP280;46444;45.590;5.284;2023-04-08T11:13:38;99215.25;;;11.00
60615;BMP280;46444;45.590;5.284;2023-04-08T11:16:06;99216.22;;;11.17
60615;BMP280;46444;45.590;5.284;2023-04-08T11:18:37;99216.38;;;11.22
60615;BMP280;46444;45.590;5.284;2023-04-08T11:21:08;99219.34;;;11.14
60615;BMP280;46444;45.590;5.284;2023-04-08T11:23:34;99214.97;;;11.19
60615;BMP280;46444;45.590;5.284;2023-04-08T11:26:00;99211.84;;;11.34
60615;BMP280;46444;45.590;5.284;2023-04-08T11:28:26;99215.44;;;11.39
60615;BMP280;46444;45.590;5.284;2023-04-08T11:30:53;99205.56;;;11.51
60615;BMP280;46444;45.590;5.284;2023-04-08T11:33:19;99208.97;;;11.58
60615;BMP280;46444;45.590;5.284;2023-04-08T11:35:44;99200.00;;;11.64
60615;BMP280;46444;45.590;5.284;2023-04-08T11:38:10;99184.03;;;11.58
60615;BMP280;46444;45.590;5.284;2023-04-08T11:40:36;99187.31;;;11.60
60615;BMP280;46444;45.590;5.284;2023-04-08T11:43:12;99188.81;;;11.79
60615;BMP280;46444;45.590;5.284;2023-04-08T11:45:40;99190.09;;;11.88
60615;BMP280;46444;45.590;5.284;2023-04-08T11:48:13;99180.63;;;11.97
60615;BMP280;46444;45.590;5.284;2023-04-08T11:50:40;99175.06;;;11.87
60615;BMP280;46444;45.590;5.284;2023-04-08T11:53:19;99172.72;;;12.02
60615;BMP280;46444;45.590;5.284;2023-04-08T11:55:45;99173.03;;;12.17
60615;BMP280;46444;45.590;5.284;2023-04-08T11:58:10;99171.38;;;12.27
60615;BMP280;46444;45.590;5.284;2023-04-08T12:00:36;99169.69;;;12.38
60615;BMP280;46444;45.590;5.284;2023-04-08T12:03:03;99164.91;;;12.40
60615;BMP280;46444;45.590;5.284;2023-04-08T12:05:28;99167.31;;;12.53
60615;BMP280;46444;45.590;5.284;2023-04-08T12:07:53;99165.41;;;12.65
60615;BMP280;46444;45.590;5.284;2023-04-08T12:10:19;99148.78;;;12.79
60615;BMP280;46444;45.590;5.284;2023-04-08T12:12:44;99159.47;;;13.07
60615;BMP280;46444;45.590;5.284;2023-04-08T12:15:10;99160.84;;;13.26
60615;BMP280;46444;45.590;5.284;2023-04-08T12:17:36;99162.53;;;13.32
60615;BMP280;46444;45.590;5.284;2023-04-08T12:20:04;99153.69;;;13.32
60615;BMP280;46444;45.590;5.284;2023-04-08T12:22:29;99146.56;;;13.59
60615;BMP280;46444;45.590;5.284;2023-04-08T12:24:54;99144.41;;;13.77
60615;BMP280;46444;45.590;5.284;2023-04-08T12:27:20;99138.34;;;13.87
60615;BMP280;46444;45.590;5.284;2023-04-08T12:29:45;99135.38;;;14.05
60615;BMP280;46444;45.590;5.284;2023-04-08T12:32:11;99135.63;;;14.25
60615;BMP280;46444;45.590;5.284;2023-04-08T12:34:36;99135.88;;;14.45
60615;BMP280;46444;45.590;5.284;2023-04-08T12:37:01;99130.53;;;14.76
60615;BMP280;46444;45.590;5.284;2023-04-08T12:39:27;99143.97;;;15.03
60615;BMP280;46444;45.590;5.284;2023-04-08T12:41:53;99131.59;;;15.07
60615;BMP280;46444;45.590;5.284;2023-04-08T12:44:18;99128.53;;;14.93
60615;BMP280;46444;45.590;5.284;2023-04-08T12:46:43;99121.81;;;15.27
60615;BMP280;46444;45.590;5.284;2023-04-08T12:49:09;99113.91;;;15.47
60615;BMP280;46444;45.590;5.284;2023-04-08T12:51:36;99121.25;;;15.62
60615;BMP280;46444;45.590;5.284;2023-04-08T12:54:01;99111.56;;;15.66
60615;BMP280;46444;45.590;5.284;2023-04-08T12:56:28;99114.31;;;15.71
60615;BMP280;46444;45.590;5.284;2023-04-08T12:58:53;99109.75;;;15.76
60615;BMP280;46444;45.590;5.284;2023-04-08T13:01:20;99102.09;;;16.10
60615;BMP280;46444;45.590;5.284;2023-04-08T13:03:45;99099.66;;;16.18
60615;BMP280;46444;45.590;5.284;2023-04-08T13:06:12;99098.38;;;16.31
60615;BMP280;46444;45.590;5.284;2023-04-08T13:08:37;99095.78;;;16.71
60615;BMP280;46444;45.590;5.284;2023-04-08T13:11:02;99100.41;;;16.90
60615;BMP280;46444;45.590;5.284;2023-04-08T13:13:28;99096.34;;;17.08
60615;BMP280;46444;45.590;5.284;2023-04-08T13:15:54;99088.78;;;16.95
60615;BMP280;46444;45.590;5.284;2023-04-08T13:18:20;99094.19;;;16.95
60615;BMP280;46444;45.590;5.284;2023-04-08T13:20:46;99080.13;;;17.03
60615;BMP280;46444;45.590;5.284;2023-04-08T13:23:11;99088.22;;;17.08
60615;BMP280;46444;45.590;5.284;2023-04-08T13:25:38;99087.38;;;17.37
60615;BMP280;46444;45.590;5.284;2023-04-08T13:28:03;99076.31;;;17.49
60615;BMP280;46444;45.590;5.284;2023-04-08T13:30:29;99076.31;;;17.54
60615;BMP280;46444;45.590;5.284;2023-04-08T13:32:55;99064.41;;;17.60
60615;BMP280;46444;45.590;5.284;2023-04-08T13:35:20;99071.31;;;17.96
60615;BMP280;46444;45.590;5.284;2023-04-08T13:37:45;99068.56;;;18.01
60615;BMP280;46444;45.590;5.284;2023-04-08T13:40:11;99069.13;;;17.98
60615;BMP280;46444;45.590;5.284;2023-04-08T13:42:37;99064.66;;;18.27
60615;BMP280;46444;45.590;5.284;2023-04-08T13:45:03;99069.91;;;18.57
60615;BMP280;46444;45.590;5.284;2023-04-08T13:47:29;99058.00;;;18.53
60615;BMP280;46444;45.590;5.284;2023-04-08T13:49:55;99061.34;;;18.78
60615;BMP280;46444;45.590;5.284;2023-04-08T13:52:20;99054.13;;;18.97
60615;BMP280;46444;45.590;5.284;2023-04-08T13:54:46;99053.34;;;18.97
60615;BMP280;46444;45.590;5.284;2023-04-08T13:57:11;99055.44;;;18.71
60615;BMP280;46444;45.590;5.284;2023-04-08T14:12:32;99038.94;;;18.73
60615;BMP280;46444;45.590;5.284;2023-04-08T14:14:57;99040.16;;;18.52
60615;BMP280;46444;45.590;5.284;2023-04-08T14:17:23;99029.69;;;18.40
60615;BMP280;46444;45.590;5.284;2023-04-08T14:19:48;99031.97;;;18.13
60615;BMP280;46444;45.590;5.284;2023-04-08T14:22:13;99031.78;;;18.00
60615;BMP280;46444;45.590;5.284;2023-04-08T14:24:40;99029.63;;;18.02
60615;BMP280;46444;45.590;5.284;2023-04-08T14:27:05;99030.50;;;17.92
60615;BMP280;46444;45.590;5.284;2023-04-08T14:29:31;99024.53;;;17.90
60615;BMP280;46444;45.590;5.284;2023-04-08T14:31:56;99024.84;;;17.84
60615;BMP280;46444;45.590;5.284;2023-04-08T14:34:21;99020.94;;;17.46
60615;BMP280;46444;45.590;5.284;2023-04-08T14:36:47;99016.88;;;17.44